TimeCST,TemperatureF,Dew PointF,Humidity,Sea Level PressureIn,VisibilityMPH,Wind Direction,Wind SpeedMPH,Gust SpeedMPH,PrecipitationIn,Events,Conditions,WindDirDegrees,DateUTC
12:55 AM,30.2,17.6,60,30.39,10.0,NNW,3.5,-,N/A,,Clear,340,2012-11-24 06:55:00
1:15 AM,30.2,15.8,55,30.38,10.0,NNW,3.5,-,N/A,,Clear,340,2012-11-24 07:15:00
1:35 AM,30.2,15.8,55,30.38,10.0,Calm,Calm,-,N/A,,Clear,0,2012-11-24 07:35:00
1:56 AM,28.4,17.6,64,30.37,10.0,Calm,Calm,-,N/A,,Clear,0,2012-11-24 07:56:00
2:15 AM,26.6,15.8,64,30.37,10.0,Calm,Calm,-,N/A,,Clear,0,2012-11-24 08:15:00
2:35 AM,28.4,19.4,69,30.36,10.0,Calm,Calm,-,N/A,,Clear,0,2012-11-24 08:35:00
3:15 AM,26.6,19.4,74,30.36,10.0,Calm,Calm,-,N/A,,Clear,0,2012-11-24 09:15:00
3:35 AM,26.6,17.6,69,30.37,10.0,Calm,Calm,-,N/A,,Clear,0,2012-11-24 09:35:00
3:55 AM,24.8,17.6,74,30.36,10.0,Calm,Calm,-,N/A,,Clear,0,2012-11-24 09:55:00
4:16 AM,24.8,19.4,80,30.36,10.0,Calm,Calm,-,N/A,,Clear,0,2012-11-24 10:16:00
4:35 AM,24.8,17.6,74,30.36,10.0,Calm,Calm,-,N/A,,Clear,0,2012-11-24 10:35:00
5:35 AM,23.0,17.6,80,30.35,10.0,Calm,Calm,-,N/A,,Clear,0,2012-11-24 11:35:00
5:55 AM,24.8,17.6,74,30.35,10.0,Calm,Calm,-,N/A,,Clear,0,2012-11-24 11:55:00
6:15 AM,24.8,17.6,74,30.35,10.0,Calm,Calm,-,N/A,,Clear,0,2012-11-24 12:15:00
6:55 AM,23.0,17.6,80,30.35,10.0,Calm,Calm,-,N/A,,Clear,0,2012-11-24 12:55:00
7:15 AM,23.0,17.6,80,30.35,10.0,Calm,Calm,-,N/A,,Clear,0,2012-11-24 13:15:00
7:35 AM,24.8,17.6,74,30.34,10.0,Calm,Calm,-,N/A,,Clear,0,2012-11-24 13:35:00
7:56 AM,26.6,19.4,74,30.34,10.0,Calm,Calm,-,N/A,,Clear,0,2012-11-24 13:56:00
8:15 AM,30.2,19.4,64,30.35,10.0,SSE,3.5,-,N/A,,Clear,160,2012-11-24 14:15:00
8:35 AM,30.2,21.2,69,30.35,10.0,SE,3.5,-,N/A,,Clear,140,2012-11-24 14:35:00
9:15 AM,33.8,19.4,56,30.34,10.0,Calm,Calm,-,N/A,,Clear,0,2012-11-24 15:15:00
9:35 AM,37.4,19.4,48,30.34,10.0,SE,3.5,-,N/A,,Clear,130,2012-11-24 15:35:00
9:55 AM,37.4,17.6,45,30.34,10.0,Calm,Calm,-,N/A,,Clear,0,2012-11-24 15:55:00
10:35 AM,41.0,15.8,36,30.33,10.0,Calm,Calm,-,N/A,,Clear,0,2012-11-24 16:35:00
10:55 AM,39.2,12.2,33,30.32,10.0,Calm,Calm,-,N/A,,Clear,0,2012-11-24 16:55:00
11:16 AM,42.8,15.8,34,30.31,10.0,SW,5.8,-,N/A,,Clear,220,2012-11-24 17:16:00
11:35 AM,42.8,15.8,34,30.30,10.0,SW,5.8,-,N/A,,Clear,230,2012-11-24 17:35:00
11:55 AM,44.6,17.6,34,30.28,10.0,SW,4.6,-,N/A,,Clear,230,2012-11-24 17:55:00
12:15 PM,44.6,17.6,34,30.26,10.0,SW,6.9,-,N/A,,Clear,220,2012-11-24 18:15:00
12:35 PM,46.4,17.6,32,30.24,10.0,SSW,3.5,-,N/A,,Clear,210,2012-11-24 18:35:00
12:55 PM,48.2,17.6,30,30.23,10.0,South,5.8,-,N/A,,Clear,170,2012-11-24 18:55:00
1:15 PM,48.2,17.6,30,30.21,10.0,SW,4.6,-,N/A,,Clear,220,2012-11-24 19:15:00
1:55 PM,50.0,17.6,28,30.19,10.0,SSW,5.8,-,N/A,,Clear,210,2012-11-24 19:55:00
2:15 PM,51.8,19.4,28,30.18,10.0,SSW,3.5,-,N/A,,Clear,200,2012-11-24 20:15:00
2:55 PM,51.8,19.4,28,30.16,10.0,South,6.9,-,N/A,,Clear,180,2012-11-24 20:55:00
3:15 PM,51.8,17.6,26,30.15,10.0,South,6.9,-,N/A,,Clear,180,2012-11-24 21:15:00
3:55 PM,51.8,17.6,26,30.13,10.0,South,5.8,-,N/A,,Clear,180,2012-11-24 21:55:00
4:15 PM,51.8,19.4,28,30.12,10.0,South,4.6,-,N/A,,Clear,180,2012-11-24 22:15:00
4:55 PM,50.0,19.4,30,30.10,10.0,South,5.8,-,N/A,,Clear,190,2012-11-24 22:55:00
5:15 PM,48.2,19.4,32,30.09,10.0,South,8.1,-,N/A,,Clear,190,2012-11-24 23:15:00
5:35 PM,48.2,17.6,30,30.09,10.0,South,9.2,-,N/A,,Clear,190,2012-11-24 23:35:00
6:15 PM,46.4,17.6,32,30.07,10.0,South,8.1,-,N/A,,Clear,190,2012-11-25 00:15:00
6:35 PM,44.6,17.6,34,30.07,10.0,South,9.2,-,N/A,,Clear,180,2012-11-25 00:35:00
6:55 PM,44.6,17.6,34,30.07,10.0,South,3.5,-,N/A,,Clear,190,2012-11-25 00:55:00
7:15 PM,42.8,17.6,36,30.07,10.0,SSW,3.5,-,N/A,,Clear,210,2012-11-25 01:15:00
7:35 PM,39.2,19.4,45,30.07,10.0,Calm,Calm,-,N/A,,Clear,0,2012-11-25 01:35:00
7:55 PM,39.2,17.6,42,30.07,10.0,SSE,8.1,-,N/A,,Clear,160,2012-11-25 01:55:00
8:35 PM,39.2,19.4,45,30.05,10.0,South,6.9,-,N/A,,Clear,170,2012-11-25 02:35:00
8:55 PM,39.2,17.6,42,30.05,10.0,South,5.8,-,N/A,,Clear,180,2012-11-25 02:55:00
9:16 PM,41.0,17.6,39,30.05,10.0,South,5.8,-,N/A,,Clear,180,2012-11-25 03:16:00
9:35 PM,41.0,19.4,42,30.05,10.0,South,8.1,-,N/A,,Clear,190,2012-11-25 03:35:00
9:55 PM,39.2,19.4,45,30.05,10.0,SSW,6.9,-,N/A,,Clear,200,2012-11-25 03:55:00
10:15 PM,39.2,19.4,45,30.04,10.0,SSW,9.2,-,N/A,,Clear,200,2012-11-25 04:15:00
10:36 PM,41.0,19.4,42,30.04,10.0,SSW,6.9,-,N/A,,Clear,200,2012-11-25 04:36:00
10:55 PM,39.2,19.4,45,30.04,10.0,SSW,5.8,-,N/A,,Clear,200,2012-11-25 04:55:00
11:15 PM,39.2,19.4,45,30.04,10.0,SSW,8.1,-,N/A,,Clear,200,2012-11-25 05:15:00
11:55 PM,42.8,21.2,42,30.03,10.0,SSW,10.4,-,N/A,,Clear,200,2012-11-25 05:55:00